KGEU

Details ICAO KGEU
Name Glendale Muni
Region United States
Timezone America/Phoenix (UTC-7.0)
Plans Departing 24
Arriving 9
Stats Elevation 1,071 ft / 326 m (AMSL)
Location 33.526822° -112.295159°
Runways 1
Magnetic Variation 10.376° E
Sunrise 2018-05-21 12:26:17 UTC / 2018-05-21 05:26:17 Local
Sunset 2018-05-22 02:28:10 UTC / 2018-05-21 19:28:10 Local
Advertisement - Login to hide

Runways

ID Width Length Bearing (true) Bearing (mag) Surface Threshold Offset Overrun Length
01 98 ft / 30 m 7,113 ft / 2,168 m 25.97° 15.59° Asphalt 702 ft / 214 m 0 ft / 0 m
19 98 ft / 30 m 7,113 ft / 2,168 m 205.97° 195.59° Asphalt 1,001 ft / 305 m 125 ft / 38 m

Map

Weather


0- 5 10 15 20 25 30 35+ Temperature / ° C

Clouds and Precipitation
Forecast for 2018-05-22 00:00 UTC. Updated 5 hours ago

Ground ~20,000 ft ~40,000 ft Winds

METAR

KGEU 220247Z 22008KT 10SM FEW100 SCT180 31/M01 A2966 RMK LAST

TAF

Not found

Frequencies

Recorded 119.42 MHz ATIS
Unicom 122.95 MHz UNICOM
Tower 121.00 MHz TWR
Unicom 121.00 MHz CTAF
Ground 118.00 MHz GND
Approach 120.50 MHz LUKE APP/DEP
Warning: Do not use this data for real-world aviation or navigation. No guarantee of current accuracy is given.